createdAt,value
2023-04-07T00:00:22.587Z,98704.75
2023-04-07T00:03:23.964Z,98698.36
2023-04-07T00:06:16.206Z,98699.59
2023-04-07T00:09:08.187Z,98694.09
2023-04-07T00:11:51.225Z,98695.16
2023-04-07T00:14:43.291Z,98694.29
2023-04-07T00:17:35.408Z,98688.42
2023-04-07T00:20:27.471Z,98684.63
2023-04-07T00:23:02.142Z,98683.41
2023-04-07T00:25:54.238Z,98677.90
2023-04-07T00:28:46.164Z,98678.60
2023-04-07T00:31:29.671Z,98668.95
2023-04-07T00:34:21.785Z,98666.88
2023-04-07T00:37:13.812Z,98664.98
2023-04-07T00:40:06.588Z,98664.98
2023-04-07T00:42:58.550Z,98664.12
2023-04-07T00:45:50.620Z,98662.39
2023-04-07T00:48:42.617Z,98660.85
2023-04-07T00:51:34.982Z,98659.63
2023-04-07T00:54:27.703Z,98658.07
2023-04-07T00:57:19.694Z,98656.34
2023-04-07T01:00:13.085Z,98656.67
2023-04-07T01:03:10.912Z,98655.13
2023-04-07T01:06:06.722Z,98649.26
2023-04-07T01:09:06.181Z,98645.80
2023-04-07T01:12:06.393Z,98648.39
2023-04-07T01:15:05.699Z,98644.94
2023-04-07T01:18:07.422Z,98645.80
2023-04-07T01:21:04.574Z,98644.95
2023-04-07T01:24:18.452Z,98639.24
2023-04-07T01:27:20.142Z,98645.29
2023-04-07T01:30:14.419Z,98646.66
2023-04-07T01:33:07.894Z,98648.59
2023-04-07T01:36:02.278Z,98644.27
2023-04-07T01:38:55.928Z,98647.92
2023-04-07T01:41:34.312Z,98643.59
2023-04-07T01:44:28.496Z,98639.28
2023-04-07T01:47:21.600Z,98634.09
2023-04-07T01:50:04.563Z,98633.55
2023-04-07T01:52:57.147Z,98635.81
2023-04-07T01:55:49.200Z,98633.03
2023-04-07T01:58:41.251Z,98626.13
2023-04-07T02:01:33.403Z,98624.57
2023-04-07T02:04:32.158Z,98624.55
2023-04-07T02:07:30.489Z,98634.91
2023-04-07T02:10:25.364Z,98629.03
2023-04-07T02:13:20.057Z,98624.02
2023-04-07T02:16:09.535Z,98627.97
2023-04-07T02:19:02.488Z,98633.85
2023-04-07T02:21:55.568Z,98633.17
2023-04-07T02:24:27.482Z,98630.05
2023-04-07T02:27:20.639Z,98632.14
2023-04-07T02:30:14.048Z,98630.93
2023-04-07T02:33:06.310Z,98636.80
2023-04-07T02:35:54.467Z,98640.28
2023-04-07T02:38:39.985Z,98632.52
2023-04-07T02:41:32.089Z,98631.48
2023-04-07T02:44:24.095Z,98630.09
2023-04-07T02:47:16.050Z,98628.02
2023-04-07T02:50:09.471Z,98627.33
2023-04-07T02:53:01.435Z,98627.33
2023-04-07T02:55:36.338Z,98620.75
2023-04-07T02:58:28.548Z,98616.42
2023-04-07T03:01:20.768Z,98617.98
2023-04-07T03:04:13.330Z,98618.33
2023-04-07T03:07:05.399Z,98620.58
2023-04-07T03:09:57.367Z,98619.02
2023-04-07T03:12:49.832Z,98621.78
2023-04-07T03:15:41.866Z,98615.23
2023-04-07T03:18:33.837Z,98618.33
2023-04-07T03:21:15.508Z,98616.27
2023-04-07T03:24:08.942Z,98605.56
2023-04-07T03:27:02.056Z,98604.52
2023-04-07T03:29:54.351Z,98605.89
2023-04-07T03:32:46.408Z,98611.41
2023-04-07T03:35:34.640Z,98619.36
2023-04-07T03:38:26.710Z,98622.81
2023-04-07T03:41:18.695Z,98617.82
2023-04-07T03:44:10.677Z,98616.80
2023-04-07T03:47:03.138Z,98609.04
2023-04-07T03:49:55.397Z,98611.11
2023-04-07T03:52:47.779Z,98614.39
2023-04-07T03:55:39.841Z,98614.58
2023-04-07T03:58:31.977Z,98611.98
2023-04-07T04:01:24.058Z,98611.13
2023-04-07T04:03:56.228Z,98605.08
2023-04-07T04:06:48.754Z,98607.16
2023-04-07T04:09:41.272Z,98608.72
2023-04-07T04:12:33.343Z,98611.30
2023-04-07T04:15:25.409Z,98612.92
2023-04-07T04:18:17.353Z,98608.45
2023-04-07T04:20:49.323Z,98611.55
2023-04-07T04:23:41.328Z,98612.77
2023-04-07T04:26:33.387Z,98614.14
2023-04-07T04:29:25.370Z,98613.28
2023-04-07T04:32:17.837Z,98609.48
2023-04-07T04:35:11.025Z,98611.20
2023-04-07T04:38:03.053Z,98612.24
2023-04-07T04:40:55.065Z,98614.66
2023-04-07T04:43:47.968Z,98622.63
2023-04-07T04:46:40.163Z,98623.48
2023-04-07T04:49:32.161Z,98624.16
2023-04-07T04:52:24.133Z,98629.85
2023-04-07T04:54:59.208Z,98626.75
2023-04-07T04:57:36.020Z,98624.69
2023-04-07T05:00:28.062Z,98628.15
2023-04-07T05:03:20.235Z,98629.72
2023-04-07T05:06:12.285Z,98631.45
2023-04-07T05:09:04.269Z,98625.58
2023-04-07T05:11:57.851Z,98626.09
2023-04-07T05:14:49.942Z,98632.83
2023-04-07T05:17:24.649Z,98630.75
2023-04-07T05:20:17.468Z,98633.02
2023-04-07T05:23:09.406Z,98633.38
2023-04-07T05:25:52.687Z,98630.63
2023-04-07T05:28:44.635Z,98622.69
2023-04-07T05:31:37.477Z,98616.33
2023-04-07T05:34:14.781Z,98617.73
2023-04-07T05:37:06.763Z,98621.72
2023-04-07T05:39:59.206Z,98623.63
2023-04-07T05:42:51.378Z,98633.49
2023-04-07T05:45:43.471Z,98637.30
2023-04-07T05:48:35.543Z,98643.89
2023-04-07T05:51:27.572Z,98648.38
2023-04-07T05:54:19.614Z,98646.52
2023-04-07T05:57:11.738Z,98641.88
2023-04-07T06:00:04.333Z,98642.70
2023-04-07T06:02:40.165Z,98638.23
2023-04-07T06:05:17.902Z,98639.13
2023-04-07T06:08:10.030Z,98639.66
2023-04-07T06:11:02.282Z,98638.30
2023-04-07T06:13:54.396Z,98632.27
2023-04-07T06:16:46.741Z,98629.85
2023-04-07T06:19:38.778Z,98632.27
2023-04-07T06:22:30.910Z,98629.89
2023-04-07T06:25:23.099Z,98632.34
2023-04-07T06:28:03.929Z,98630.63
2023-04-07T06:30:41.177Z,98632.20
2023-04-07T06:33:33.254Z,98623.23
2023-04-07T06:36:25.312Z,98618.75
2023-04-07T06:39:17.392Z,98613.80
2023-04-07T06:41:54.713Z,98611.42
2023-04-07T06:44:37.850Z,98616.66
2023-04-07T06:47:29.892Z,98619.47
2023-04-07T06:50:22.314Z,98623.33
2023-04-07T06:53:14.356Z,98629.45
2023-04-07T06:55:49.112Z,98628.81
2023-04-07T06:58:29.994Z,98633.19
2023-04-07T07:01:18.410Z,98634.55
2023-04-07T07:04:10.861Z,98633.77
2023-04-07T07:06:45.480Z,98636.88
2023-04-07T07:09:37.503Z,98636.57
2023-04-07T07:12:29.620Z,98633.34
2023-04-07T07:15:13.550Z,98629.20
2023-04-07T07:18:05.816Z,98627.88
2023-04-07T07:20:46.506Z,98627.73
2023-04-07T07:23:38.527Z,98633.97
2023-04-07T07:26:30.697Z,98639.51
2023-04-07T07:29:22.783Z,98643.31
2023-04-07T07:32:05.019Z,98651.27
2023-04-07T07:34:57.031Z,98659.92
2023-04-07T07:37:49.453Z,98656.47
2023-04-07T07:40:47.060Z,98654.59
2023-04-07T07:43:39.076Z,98662.05
2023-04-07T07:46:13.786Z,98666.74
2023-04-07T07:49:06.033Z,98669.52
2023-04-07T07:51:40.193Z,98653.97
2023-04-07T07:54:32.142Z,98649.54
2023-04-07T07:57:24.145Z,98653.70
2023-04-07T08:00:17.179Z,98651.64
2023-04-07T08:03:00.272Z,98650.59
2023-04-07T08:05:34.760Z,98644.88
2023-04-07T08:08:26.789Z,98636.22
2023-04-07T08:11:18.783Z,98633.63
2023-04-07T08:14:10.869Z,98636.92
2023-04-07T08:17:02.994Z,98645.23
2023-04-07T08:19:55.061Z,98655.27
2023-04-07T08:22:47.123Z,98662.91
2023-04-07T08:25:40.004Z,98654.61
2023-04-07T08:28:31.938Z,98654.12
2023-04-07T08:31:23.983Z,98647.38
2023-04-07T08:34:16.605Z,98640.46
2023-04-07T08:37:09.555Z,98641.51
2023-04-07T08:39:46.534Z,98646.87
2023-04-07T08:42:30.785Z,98650.00
2023-04-07T08:45:23.551Z,98651.21
2023-04-07T08:48:17.579Z,98648.27
2023-04-07T08:51:10.975Z,98647.80
2023-04-07T08:54:09.908Z,98648.34
2023-04-07T08:57:03.882Z,98648.91
2023-04-07T08:59:56.264Z,98657.40
2023-04-07T09:02:49.356Z,98654.45
2023-04-07T09:05:25.078Z,98652.38
2023-04-07T09:08:17.126Z,98649.62
2023-04-07T09:10:48.931Z,98647.54
2023-04-07T09:13:22.096Z,98641.48
2023-04-07T09:16:00.713Z,98638.71
2023-04-07T09:18:33.483Z,98629.54
2023-04-07T09:21:15.850Z,98622.09
2023-04-07T09:23:48.302Z,98623.52
2023-04-07T09:26:25.743Z,98627.34
2023-04-07T09:29:21.742Z,98626.97
2023-04-07T09:31:55.377Z,98630.43
2023-04-07T09:34:47.675Z,98633.88
2023-04-07T09:37:39.663Z,98628.00
2023-04-07T09:40:29.978Z,98629.42
2023-04-07T09:43:15.634Z,98631.33
2023-04-07T09:46:12.618Z,98626.48
2023-04-07T09:49:06.285Z,98622.66
2023-04-07T09:52:00.739Z,98626.30
2023-04-07T09:54:53.956Z,98625.27
2023-04-07T09:57:31.096Z,98629.59
2023-04-07T10:00:23.229Z,98625.44
2023-04-07T10:03:04.750Z,98628.22
2023-04-07T10:05:57.015Z,98632.20
2023-04-07T10:08:49.249Z,98633.42
2023-04-07T10:11:42.580Z,98627.18
2023-04-07T10:14:37.130Z,98625.63
2023-04-07T10:17:21.544Z,98627.86
2023-04-07T10:20:14.402Z,98626.65
2023-04-07T10:23:08.110Z,98629.42
2023-04-07T10:26:02.506Z,98632.20
2023-04-07T10:29:00.117Z,98633.59
2023-04-07T10:31:52.740Z,98643.13
2023-04-07T10:35:01.264Z,98637.95
2023-04-07T10:37:38.235Z,98633.27
2023-04-07T10:40:34.508Z,98631.35
2023-04-07T10:43:41.785Z,98634.11
2023-04-07T10:47:10.519Z,98638.09
2023-04-07T10:50:22.445Z,98632.20
2023-04-07T10:53:16.237Z,98634.81
2023-04-07T10:55:59.252Z,98637.80
2023-04-07T10:59:17.280Z,98632.46
2023-04-07T11:02:33.934Z,98625.39
2023-04-07T11:05:26.256Z,98626.96
2023-04-07T11:08:33.035Z,98619.00
2023-04-07T11:11:41.600Z,98619.54
2023-04-07T11:14:37.316Z,98618.00
2023-04-07T11:17:17.521Z,98617.66
2023-04-07T11:19:56.026Z,98616.63
2023-04-07T11:22:30.331Z,98617.01
2023-04-07T11:25:21.647Z,98614.93
2023-04-07T11:27:56.625Z,98609.55
2023-04-07T11:30:51.588Z,98611.46
2023-04-07T11:33:29.027Z,98610.24
2023-04-07T11:36:29.641Z,98610.59
2023-04-07T11:39:28.134Z,98607.65
2023-04-07T11:42:34.443Z,98606.43
2023-04-07T11:45:20.819Z,98607.99
2023-04-07T11:48:42.317Z,98608.52
2023-04-07T11:51:34.414Z,98609.89
2023-04-07T11:54:26.516Z,98603.28
2023-04-07T11:57:27.404Z,98601.38
2023-04-07T12:00:20.752Z,98610.36
2023-04-07T12:03:16.392Z,98619.52
2023-04-07T12:05:54.542Z,98623.85
2023-04-07T12:08:42.091Z,98625.06
2023-04-07T12:11:35.888Z,98624.20
2023-04-07T12:14:18.116Z,98619.69
2023-04-07T12:16:56.481Z,98616.05
2023-04-07T12:19:48.642Z,98617.45
2023-04-07T12:22:40.754Z,98620.73
2023-04-07T12:25:32.809Z,98618.65
2023-04-07T12:28:24.798Z,98614.33
2023-04-07T12:31:07.217Z,98614.67
2023-04-07T12:33:39.065Z,98618.66
2023-04-07T12:36:31.148Z,98611.55
2023-04-07T12:39:03.222Z,98616.06
2023-04-07T12:41:55.402Z,98617.30
2023-04-07T12:44:47.393Z,98614.71
2023-04-07T12:47:39.457Z,98619.39
2023-04-07T12:50:31.866Z,98619.05
2023-04-07T12:53:24.052Z,98617.84
2023-04-07T12:55:58.862Z,98618.18
2023-04-07T12:58:51.201Z,98616.80
2023-04-07T13:01:43.413Z,98613.85
2023-04-07T13:04:30.399Z,98618.36
2023-04-07T13:07:22.705Z,98618.88
2023-04-07T13:10:14.757Z,98615.92
2023-04-07T13:13:07.065Z,98614.89
2023-04-07T13:15:49.463Z,98617.49
2023-04-07T13:18:41.764Z,98619.92
2023-04-07T13:21:46.147Z,98623.59
2023-04-07T13:24:38.578Z,98624.81
2023-04-07T13:27:30.584Z,98626.04
2023-04-07T13:30:23.003Z,98628.48
2023-04-07T13:33:15.068Z,98630.91
2023-04-07T13:36:07.839Z,98631.42
2023-04-07T13:39:00.168Z,98632.82
2023-04-07T13:41:52.099Z,98638.73
2023-04-07T13:44:27.316Z,98637.68
2023-04-07T13:47:20.391Z,98641.48
2023-04-07T13:50:13.089Z,98634.39
2023-04-07T13:52:54.056Z,98635.45
2023-04-07T13:55:46.113Z,98636.84
2023-04-07T13:58:26.962Z,98636.66
2023-04-07T14:01:19.043Z,98639.09
2023-04-07T14:03:57.451Z,98641.52
2023-04-07T14:06:51.302Z,98642.21
2023-04-07T14:09:43.701Z,98641.87
2023-04-07T14:12:35.980Z,98639.96
2023-04-07T14:15:28.254Z,98639.78
2023-04-07T14:18:20.509Z,98642.39
2023-04-07T14:21:12.638Z,98641.17
2023-04-07T14:24:04.910Z,98640.14
2023-04-07T14:26:56.999Z,98640.83
2023-04-07T14:29:49.038Z,98635.62
2023-04-07T14:32:41.040Z,98635.96
2023-04-07T14:35:33.085Z,98633.89
2023-04-07T14:38:26.008Z,98628.17
2023-04-07T14:41:18.248Z,98632.33
2023-04-07T14:44:00.159Z,98629.02
2023-04-07T14:46:52.208Z,98631.81
2023-04-07T14:49:28.451Z,98627.31
2023-04-07T14:52:20.599Z,98624.18
2023-04-07T14:55:04.112Z,98625.56
2023-04-07T14:57:56.077Z,98623.14
2023-04-07T15:00:48.122Z,98622.80
2023-04-07T15:03:40.256Z,98620.19
2023-04-07T15:06:32.670Z,98621.92
2023-04-07T15:09:07.288Z,98624.18
2023-04-07T15:12:00.370Z,98632.33
2023-04-07T15:14:32.828Z,98631.30
2023-04-07T15:17:36.443Z,98627.46
2023-04-07T15:20:34.823Z,98635.80
2023-04-07T15:23:26.779Z,98627.48
2023-04-07T15:26:18.804Z,98626.77
2023-04-07T15:28:53.584Z,98627.82
2023-04-07T15:31:45.795Z,98624.88
2023-04-07T15:34:37.808Z,98632.33
2023-04-07T15:37:14.086Z,98633.36
2023-04-07T15:40:07.239Z,98636.32
2023-04-07T15:42:59.213Z,98636.48
2023-04-07T15:45:51.298Z,98637.70
2023-04-07T15:48:28.398Z,98641.14
2023-04-07T15:51:20.438Z,98641.66
2023-04-07T15:54:12.455Z,98643.23
2023-04-07T15:57:04.468Z,98645.30
2023-04-07T15:59:56.991Z,98640.97
2023-04-07T16:02:49.208Z,98642.86
2023-04-07T16:05:32.309Z,98642.35
2023-04-07T16:08:24.753Z,98640.96
2023-04-07T16:11:06.206Z,98632.13
2023-04-07T16:13:58.188Z,98641.14
2023-04-07T16:16:53.679Z,98639.92
2023-04-07T16:19:45.780Z,98647.90
2023-04-07T16:22:37.751Z,98647.20
2023-04-07T16:25:30.348Z,98650.33
2023-04-07T16:28:23.402Z,98648.94
2023-04-07T16:30:58.333Z,98649.11
2023-04-07T16:33:52.341Z,98652.75
2023-04-07T16:36:44.370Z,98656.73
2023-04-07T16:39:19.156Z,98654.31
2023-04-07T16:41:56.555Z,98656.74
2023-04-07T16:44:48.549Z,98657.09
2023-04-07T16:47:44.236Z,98662.46
2023-04-07T16:50:36.356Z,98661.25
2023-04-07T16:53:28.505Z,98665.76
2023-04-07T16:56:03.348Z,98665.23
2023-04-07T16:58:56.365Z,98669.05
2023-04-07T17:01:48.599Z,98669.05
2023-04-07T17:04:26.258Z,98675.29
2023-04-07T17:07:19.776Z,98679.41
2023-04-07T17:10:14.507Z,98679.59
2023-04-07T17:13:06.641Z,98680.98
2023-04-07T17:15:41.409Z,98686.86
2023-04-07T17:18:34.669Z,98690.68
2023-04-07T17:21:16.537Z,98689.29
2023-04-07T17:23:51.828Z,98692.23
2023-04-07T17:26:44.434Z,98694.33
2023-04-07T17:29:36.858Z,98694.84
2023-04-07T17:32:29.046Z,98694.49
2023-04-07T17:35:11.399Z,98699.70
2023-04-07T17:38:03.592Z,98702.30
2023-04-07T17:40:38.429Z,98701.08
2023-04-07T17:43:19.682Z,98710.10
2023-04-07T17:46:11.801Z,98707.19
2023-04-07T17:49:03.993Z,98712.95
2023-04-07T17:51:56.492Z,98711.75
2023-04-07T17:54:48.763Z,98722.85
2023-04-07T17:57:41.610Z,98720.42
2023-04-07T18:00:19.448Z,98725.97
2023-04-07T18:03:08.247Z,98731.69
2023-04-07T18:06:00.704Z,98731.52
2023-04-07T18:08:52.659Z,98733.77
2023-04-07T18:11:45.386Z,98740.89
2023-04-07T18:14:34.854Z,98744.01
2023-04-07T18:17:16.835Z,98743.66
2023-04-07T18:20:10.650Z,98745.05
2023-04-07T18:23:03.010Z,98745.91
2023-04-07T18:25:55.031Z,98752.15
2023-04-07T18:28:47.401Z,98750.92
2023-04-07T18:31:40.324Z,98754.75
2023-04-07T18:34:32.561Z,98760.65
2023-04-07T18:37:07.327Z,98761.86
2023-04-07T18:39:59.729Z,98762.55
2023-04-07T18:42:34.442Z,98762.69
2023-04-07T18:45:16.908Z,98761.48
2023-04-07T18:47:54.714Z,98764.77
2023-04-07T18:50:52.759Z,98764.08
2023-04-07T18:53:27.827Z,98764.96
2023-04-07T18:56:21.010Z,98770.01
2023-04-07T18:59:03.872Z,98766.71
2023-04-07T19:01:56.624Z,98767.93
2023-04-07T19:04:49.342Z,98771.75
2023-04-07T19:07:41.621Z,98775.05
2023-04-07T19:10:33.793Z,98774.52
2023-04-07T19:13:09.015Z,98774.52
2023-04-07T19:15:51.459Z,98775.20
2023-04-07T19:18:43.855Z,98773.66
2023-04-07T19:21:35.919Z,98775.20
2023-04-07T19:24:28.340Z,98772.62
2023-04-07T19:27:11.945Z,98770.02
2023-04-07T19:30:04.441Z,98775.56
2023-04-07T19:32:56.840Z,98777.86
2023-04-07T19:35:49.203Z,98774.23
2023-04-07T19:38:41.281Z,98773.03
2023-04-07T19:41:33.627Z,98775.48
2023-04-07T19:44:26.628Z,98777.23
2023-04-07T19:47:18.602Z,98778.09
2023-04-07T19:50:14.198Z,98779.12
2023-04-07T19:53:06.220Z,98780.16
2023-04-07T19:55:58.248Z,98782.05
2023-04-07T19:58:50.473Z,98781.04
2023-04-07T20:01:34.182Z,98783.47
2023-04-07T20:04:17.924Z,98784.16
2023-04-07T20:07:10.246Z,98783.81
2023-04-07T20:10:03.653Z,98782.08
2023-04-07T20:12:38.583Z,98787.45
2023-04-07T20:15:31.036Z,98791.80
2023-04-07T20:18:23.186Z,98791.10
2023-04-07T20:21:16.308Z,98790.76
2023-04-07T20:23:51.844Z,98791.45
2023-04-07T20:26:27.153Z,98793.87
2023-04-07T20:29:20.400Z,98796.80
2023-04-07T20:32:13.814Z,98797.48
2023-04-07T20:35:07.407Z,98797.65
2023-04-07T20:37:50.676Z,98802.68
2023-04-07T20:40:42.768Z,98804.03
2023-04-07T20:43:20.328Z,98807.62
2023-04-07T20:45:58.268Z,98804.77
2023-04-07T20:48:50.829Z,98809.53
2023-04-07T20:51:43.013Z,98811.36
2023-04-07T20:54:35.362Z,98811.46
2023-04-07T20:57:28.331Z,98811.74
2023-04-07T21:00:18.791Z,98812.94
2023-04-07T21:03:11.623Z,98814.77
2023-04-07T21:05:59.992Z,98814.40
2023-04-07T21:08:41.052Z,98815.90
2023-04-07T21:11:33.174Z,98820.91
2023-04-07T21:14:07.933Z,98823.33
2023-04-07T21:17:00.142Z,98825.75
2023-04-07T21:19:43.418Z,98830.08
2023-04-07T21:22:35.315Z,98827.45
2023-04-07T21:25:27.284Z,98831.39
2023-04-07T21:28:19.288Z,98835.52
2023-04-07T21:30:56.793Z,98835.34
2023-04-07T21:33:49.020Z,98836.73
2023-04-07T21:36:41.366Z,98843.11
2023-04-07T21:39:33.609Z,98839.32
2023-04-07T21:42:25.830Z,98842.02
2023-04-07T21:45:18.002Z,98845.05
2023-04-07T21:48:10.090Z,98850.88
2023-04-07T21:50:44.133Z,98849.60
2023-04-07T21:53:36.844Z,98854.05
2023-04-07T21:56:29.179Z,98852.79
2023-04-07T21:59:18.989Z,98856.41
2023-04-07T22:02:01.064Z,98857.63
2023-04-07T22:04:53.264Z,98856.56
2023-04-07T22:07:30.618Z,98857.52
2023-04-07T22:10:22.711Z,98863.38
2023-04-07T22:12:57.140Z,98859.54
2023-04-07T22:15:50.218Z,98863.30
2023-04-07T22:18:31.382Z,98867.98
2023-04-07T22:21:23.431Z,98866.89
2023-04-07T22:24:15.568Z,98863.77
2023-04-07T22:27:07.639Z,98869.11
2023-04-07T22:29:59.664Z,98867.16
2023-04-07T22:32:51.644Z,98868.14
2023-04-07T22:35:43.813Z,98871.98
2023-04-07T22:38:35.880Z,98872.69
2023-04-07T22:41:27.886Z,98870.39
2023-04-07T22:44:19.949Z,98876.45
2023-04-07T22:47:12.246Z,98879.73
2023-04-07T22:50:04.815Z,98887.66
2023-04-07T22:52:56.819Z,98886.41
2023-04-07T22:55:40.002Z,98886.75
2023-04-07T22:58:31.975Z,98892.82
2023-04-07T23:01:24.059Z,98893.02
2023-04-07T23:04:16.100Z,98889.04
2023-04-07T23:07:08.095Z,98891.58
2023-04-07T23:10:00.053Z,98892.79
2023-04-07T23:12:43.390Z,98898.50
2023-04-07T23:15:36.870Z,98900.42
2023-04-07T23:18:28.838Z,98903.33
2023-04-07T23:21:09.748Z,98901.25
2023-04-07T23:24:01.772Z,98902.77
2023-04-07T23:26:53.836Z,98899.65
2023-04-07T23:29:45.816Z,98900.04
2023-04-07T23:32:37.986Z,98900.70
2023-04-07T23:35:30.005Z,98900.66
2023-04-07T23:38:04.801Z,98900.27
2023-04-07T23:40:56.910Z,98901.03
2023-04-07T23:43:48.877Z,98904.25
2023-04-07T23:46:40.962Z,98899.74
2023-04-07T23:49:18.187Z,98903.05
2023-04-07T23:52:11.260Z,98902.72
2023-04-07T23:55:03.205Z,98905.13
2023-04-07T23:57:55.215Z,98906.00
